createdAt,value
2022-11-05T00:02:32.290Z,34.08
2022-11-05T00:05:18.463Z,36.90
2022-11-05T00:08:09.015Z,36.08
2022-11-05T00:10:37.967Z,36.58
2022-11-05T00:13:24.994Z,36.50
2022-11-05T00:16:11.542Z,36.58
2022-11-05T00:18:39.260Z,37.38
2022-11-05T00:21:27.260Z,37.28
2022-11-05T00:24:13.560Z,37.85
2022-11-05T00:26:41.728Z,38.20
2022-11-05T00:29:09.335Z,38.25
2022-11-05T00:31:36.915Z,37.15
2022-11-05T00:34:04.523Z,38.35
2022-11-05T00:36:33.407Z,39.45
2022-11-05T00:39:01.606Z,38.42
2022-11-05T00:41:29.588Z,39.78
2022-11-05T00:44:16.796Z,38.20
2022-11-05T00:46:44.646Z,37.15
2022-11-05T00:49:30.113Z,37.88
2022-11-05T00:52:16.140Z,37.55
2022-11-05T00:54:45.116Z,36.08
2022-11-05T00:57:12.773Z,34.28
2022-11-05T00:59:41.420Z,34.42
2022-11-05T01:02:09.165Z,33.67
2022-11-05T01:04:36.962Z,34.65
2022-11-05T01:07:04.816Z,36.45
2022-11-05T01:09:33.083Z,34.40
2022-11-05T01:12:00.817Z,36.30
2022-11-05T01:14:28.482Z,35.97
2022-11-05T01:16:56.015Z,36.80
2022-11-05T01:19:23.619Z,35.53
2022-11-05T01:21:51.257Z,32.45
2022-11-05T01:24:19.072Z,35.40
2022-11-05T01:26:47.381Z,35.10
2022-11-05T01:29:15.300Z,33.47
2022-11-05T01:31:44.210Z,34.20
2022-11-05T01:34:11.804Z,34.30
2022-11-05T01:36:39.348Z,34.05
2022-11-05T01:39:06.893Z,34.85
2022-11-05T01:41:34.488Z,35.97
2022-11-05T01:44:03.439Z,37.28
2022-11-05T01:46:40.341Z,34.92
2022-11-05T01:49:15.508Z,36.22
2022-11-05T01:51:43.074Z,33.00
2022-11-05T01:54:12.657Z,36.40
2022-11-05T01:56:42.844Z,34.13
2022-11-05T01:59:12.570Z,34.80
2022-11-05T02:01:40.204Z,35.38
2022-11-05T02:04:10.354Z,33.90
2022-11-05T02:06:46.184Z,24.45
2022-11-05T02:09:28.596Z,33.72
2022-11-05T02:11:56.372Z,32.28
2022-11-05T02:14:24.054Z,35.08
2022-11-05T02:17:15.171Z,34.08
2022-11-05T02:20:20.445Z,32.75
2022-11-05T02:22:47.959Z,33.03
2022-11-05T02:25:30.524Z,31.80
2022-11-05T02:28:04.035Z,31.70
2022-11-05T02:30:38.479Z,32.47
2022-11-05T02:33:47.819Z,33.47
2022-11-05T02:36:32.561Z,32.05
2022-11-05T02:39:17.564Z,33.30
2022-11-05T02:41:51.125Z,32.17
2022-11-05T02:44:41.946Z,34.00
2022-11-05T02:47:24.307Z,33.58
2022-11-05T02:50:14.187Z,34.83
2022-11-05T02:53:04.180Z,35.35
2022-11-05T02:55:42.627Z,34.85
2022-11-05T02:58:10.343Z,31.63
2022-11-05T03:00:51.830Z,31.92
2022-11-05T03:03:25.398Z,32.10
2022-11-05T03:05:52.964Z,30.67
2022-11-05T03:08:41.366Z,32.95
2022-11-05T03:11:15.890Z,33.42
2022-11-05T03:14:07.251Z,30.38
2022-11-05T03:16:44.584Z,31.90
2022-11-05T03:19:30.652Z,31.60
2022-11-05T03:22:02.864Z,34.40
2022-11-05T03:24:35.648Z,33.22
2022-11-05T03:27:06.768Z,33.53
2022-11-05T03:29:41.708Z,30.33
2022-11-05T03:32:09.407Z,29.27
2022-11-05T03:34:43.152Z,28.90
2022-11-05T03:37:11.019Z,27.77
2022-11-05T03:39:46.110Z,29.35
2022-11-05T03:42:15.952Z,28.52
2022-11-05T03:44:46.495Z,28.95
2022-11-05T03:47:15.835Z,27.80
2022-11-05T03:49:56.782Z,28.50
2022-11-05T03:52:26.528Z,29.30
2022-11-05T03:54:54.189Z,30.42
2022-11-05T03:57:27.028Z,28.70
2022-11-05T03:59:54.831Z,30.08
2022-11-05T04:02:23.653Z,30.10
2022-11-05T04:04:52.489Z,33.08
2022-11-05T04:07:38.715Z,31.13
2022-11-05T04:10:28.178Z,33.38
2022-11-05T04:13:14.528Z,32.88
2022-11-05T04:16:01.405Z,37.78
2022-11-05T04:18:29.307Z,33.83
2022-11-05T04:21:18.047Z,39.88
2022-11-05T04:24:04.014Z,25.17
2022-11-05T04:26:31.732Z,32.33
2022-11-05T04:29:17.922Z,31.92
2022-11-05T04:31:47.372Z,31.65
2022-11-05T04:34:16.435Z,35.45
2022-11-05T04:36:44.064Z,29.83
2022-11-05T04:39:11.812Z,31.08
2022-11-05T04:41:39.562Z,24.98
2022-11-05T04:44:08.489Z,31.00
2022-11-05T04:46:36.179Z,36.72
2022-11-05T04:49:03.791Z,34.97
2022-11-05T04:51:33.288Z,37.13
2022-11-05T04:54:01.072Z,44.40
2022-11-05T04:56:31.433Z,48.35
2022-11-05T04:58:59.066Z,79.80
2022-11-05T05:01:26.711Z,44.78
2022-11-05T05:03:54.470Z,48.40
2022-11-05T05:06:22.774Z,49.17
2022-11-05T05:08:51.075Z,57.55
2022-11-05T05:11:20.664Z,65.35
2022-11-05T05:13:48.538Z,55.13
2022-11-05T05:16:23.131Z,55.45
2022-11-05T05:18:50.942Z,64.07
2022-11-05T05:21:39.469Z,50.17
2022-11-05T05:24:11.871Z,45.78
2022-11-05T05:26:49.125Z,48.03
2022-11-05T05:29:17.298Z,42.33
2022-11-05T05:31:45.036Z,252.38
2022-11-05T05:34:13.900Z,109.78
2022-11-05T05:36:41.572Z,51.90
2022-11-05T05:39:11.125Z,54.97
2022-11-05T05:41:38.893Z,45.88
2022-11-05T05:44:06.873Z,41.95
2022-11-05T05:46:34.571Z,42.97
2022-11-05T05:49:04.521Z,45.00
2022-11-05T05:51:35.504Z,56.58
2022-11-05T05:54:03.563Z,46.45
2022-11-05T05:56:31.250Z,38.28
2022-11-05T05:58:58.883Z,45.25
2022-11-05T06:01:26.856Z,39.92
2022-11-05T06:03:54.741Z,39.05
2022-11-05T06:06:22.866Z,38.80
2022-11-05T06:08:50.647Z,36.38
2022-11-05T06:11:18.487Z,36.22
2022-11-05T06:13:46.167Z,37.35
2022-11-05T06:16:15.118Z,37.67
2022-11-05T06:18:42.835Z,36.15
2022-11-05T06:21:12.121Z,39.38
2022-11-05T06:23:40.717Z,39.38
2022-11-05T06:26:12.615Z,41.38
2022-11-05T06:28:42.244Z,41.72
2022-11-05T06:31:11.009Z,38.45
2022-11-05T06:33:39.033Z,38.70
2022-11-05T06:36:07.655Z,36.85
2022-11-05T06:38:36.356Z,38.22
2022-11-05T06:41:09.863Z,37.05
2022-11-05T06:43:38.334Z,35.63
2022-11-05T06:46:06.005Z,39.28
2022-11-05T06:48:35.546Z,37.40
2022-11-05T06:51:03.861Z,37.38
2022-11-05T06:53:31.652Z,37.40
2022-11-05T06:56:03.134Z,37.00
2022-11-05T06:58:31.403Z,39.47
2022-11-05T07:01:08.172Z,34.25
2022-11-05T07:03:39.167Z,35.65
2022-11-05T07:06:07.305Z,35.33
2022-11-05T07:08:35.496Z,33.17
2022-11-05T07:11:03.828Z,34.78
2022-11-05T07:13:32.160Z,31.92
2022-11-05T07:16:01.481Z,32.13
2022-11-05T07:18:29.342Z,34.08
2022-11-05T07:20:57.039Z,28.48
2022-11-05T07:23:25.677Z,25.25
2022-11-05T07:25:53.349Z,24.52
2022-11-05T07:28:21.602Z,23.95
2022-11-05T07:30:49.568Z,22.65
2022-11-05T07:33:17.116Z,23.25
2022-11-05T07:35:44.932Z,28.55
2022-11-05T07:38:12.840Z,69.47
2022-11-05T07:40:40.917Z,45.75
2022-11-05T07:43:09.387Z,27.90
2022-11-05T07:45:37.506Z,20.27
2022-11-05T07:48:06.534Z,19.35
2022-11-05T07:50:36.283Z,22.02
2022-11-05T07:53:05.809Z,21.90
2022-11-05T07:55:33.912Z,24.50
2022-11-05T07:58:07.742Z,25.10
2022-11-05T08:00:35.797Z,21.98
2022-11-05T08:03:08.888Z,20.88
2022-11-05T08:05:44.476Z,74.85
2022-11-05T08:08:17.537Z,28.92
2022-11-05T08:10:45.311Z,22.30
2022-11-05T08:13:13.556Z,24.08
2022-11-05T08:15:42.413Z,49.30
2022-11-05T08:18:15.467Z,21.95
2022-11-05T08:20:43.639Z,20.48
2022-11-05T08:23:12.676Z,21.60
2022-11-05T08:25:42.595Z,21.40
2022-11-05T08:28:11.711Z,21.42
2022-11-05T08:30:57.960Z,89.88
2022-11-05T08:33:25.825Z,27.33
2022-11-05T08:35:53.564Z,22.50
2022-11-05T08:38:21.383Z,21.27
2022-11-05T08:40:57.603Z,30.63
2022-11-05T08:43:25.625Z,26.15
2022-11-05T08:45:54.245Z,22.27
2022-11-05T08:48:21.970Z,24.55
2022-11-05T08:50:49.920Z,22.90
2022-11-05T08:53:17.693Z,22.98
2022-11-05T08:55:47.719Z,25.33
2022-11-05T08:58:17.172Z,24.48
2022-11-05T09:00:46.399Z,25.10
2022-11-05T09:03:14.553Z,26.63
2022-11-05T09:05:43.136Z,43.67
2022-11-05T09:08:19.752Z,24.67
2022-11-05T09:10:47.697Z,50.13
2022-11-05T09:13:19.732Z,25.80
2022-11-05T09:15:49.292Z,24.55
2022-11-05T09:18:17.242Z,22.90
2022-11-05T09:20:45.128Z,25.55
2022-11-05T09:23:15.030Z,23.77
2022-11-05T09:25:43.534Z,25.17
2022-11-05T09:28:22.503Z,23.13
2022-11-05T09:30:51.482Z,21.42
2022-11-05T09:33:24.305Z,19.50
2022-11-05T09:35:52.911Z,31.60
2022-11-05T09:38:20.478Z,27.42
2022-11-05T09:41:12.678Z,22.92
2022-11-05T09:49:04.436Z,24.65
2022-11-05T09:51:32.270Z,17.98
2022-11-05T09:54:03.021Z,14.93
2022-11-05T09:56:32.296Z,16.02
2022-11-05T09:59:17.245Z,15.68
2022-11-05T10:01:45.307Z,16.17
2022-11-05T10:04:21.001Z,18.15
2022-11-05T10:06:58.654Z,17.58
2022-11-05T10:09:33.234Z,19.48
2022-11-05T10:12:11.874Z,17.98
2022-11-05T10:14:51.386Z,20.80
2022-11-05T10:17:25.269Z,19.17
2022-11-05T10:20:24.915Z,12.40
2022-11-05T10:22:56.188Z,14.25
2022-11-05T10:25:26.960Z,14.82
2022-11-05T10:27:55.287Z,12.85
2022-11-05T10:30:23.651Z,13.02
2022-11-05T10:32:56.792Z,15.23
2022-11-05T10:35:24.743Z,15.27
2022-11-05T10:37:53.759Z,16.65
2022-11-05T10:40:39.549Z,14.95
2022-11-05T10:43:12.023Z,15.18
2022-11-05T10:45:53.039Z,15.77
2022-11-05T10:48:20.466Z,16.02
2022-11-05T10:51:08.197Z,18.23
2022-11-05T10:53:39.708Z,19.52
2022-11-05T10:58:57.559Z,18.10
2022-11-05T11:01:26.716Z,18.20
2022-11-05T11:04:13.261Z,15.55
2022-11-05T11:06:45.201Z,18.88
2022-11-05T11:09:29.259Z,24.42
2022-11-05T11:12:00.225Z,19.75
2022-11-05T11:14:28.117Z,17.08
2022-11-05T11:16:58.773Z,16.45
2022-11-05T11:19:33.295Z,27.27
2022-11-05T11:22:05.631Z,18.58
2022-11-05T11:24:40.547Z,17.50
2022-11-05T11:27:14.377Z,14.60
2022-11-05T11:29:55.271Z,14.07
2022-11-05T11:32:23.250Z,14.63
2022-11-05T11:34:53.060Z,14.82
2022-11-05T11:37:30.590Z,14.60
2022-11-05T11:40:02.538Z,9.45
2022-11-05T11:42:34.197Z,10.13
2022-11-05T11:45:07.946Z,11.18
2022-11-05T11:47:36.422Z,11.18
2022-11-05T11:50:05.066Z,11.73
2022-11-05T11:52:37.042Z,11.25
2022-11-05T11:55:18.692Z,11.40
2022-11-05T11:57:55.650Z,11.00
2022-11-05T12:00:24.065Z,11.88
2022-11-05T12:03:18.033Z,12.43
2022-11-05T12:05:48.873Z,12.23
2022-11-05T12:09:06.780Z,13.50
2022-11-05T12:11:45.216Z,12.52
2022-11-05T12:14:33.093Z,12.52
2022-11-05T12:17:34.390Z,12.50
2022-11-05T12:20:10.211Z,12.93
2022-11-05T12:23:19.295Z,12.88
2022-11-05T12:26:07.961Z,12.32
2022-11-05T12:29:12.058Z,13.43
2022-11-05T12:31:43.910Z,13.23
2022-11-05T12:34:34.326Z,12.80
2022-11-05T12:37:07.759Z,13.35
2022-11-05T12:39:45.475Z,13.13
2022-11-05T12:42:31.392Z,13.50
2022-11-05T12:45:36.140Z,14.63
2022-11-05T12:48:41.417Z,14.95
2022-11-05T12:51:31.124Z,13.57
2022-11-05T12:54:22.583Z,14.57
2022-11-05T12:57:19.658Z,13.57
2022-11-05T12:59:55.015Z,13.65
2022-11-05T13:02:45.852Z,13.43
2022-11-05T13:05:39.239Z,14.65
2022-11-05T13:08:14.501Z,14.10
2022-11-05T13:10:49.689Z,13.77
2022-11-05T13:13:39.139Z,13.48
2022-11-05T13:16:29.931Z,12.63
2022-11-05T13:19:17.595Z,12.17
2022-11-05T13:21:52.606Z,12.35
2022-11-05T13:24:36.331Z,13.98
2022-11-05T13:27:25.380Z,15.35
2022-11-05T13:30:02.792Z,16.40
2022-11-05T13:32:34.864Z,16.08
2022-11-05T13:35:08.778Z,18.02
2022-11-05T13:38:00.004Z,16.02
2022-11-05T13:40:56.138Z,18.30
2022-11-05T13:43:35.904Z,19.55
2022-11-05T13:46:23.021Z,21.77
2022-11-05T13:48:56.767Z,25.52
2022-11-05T13:51:48.218Z,22.85
2022-11-05T13:57:31.889Z,16.02
2022-11-05T14:00:19.561Z,23.77
2022-11-05T14:02:49.533Z,24.42
2022-11-05T14:05:28.439Z,25.95
2022-11-05T14:07:58.163Z,30.55
2022-11-05T14:10:38.206Z,31.05
2022-11-05T14:13:33.554Z,30.80
2022-11-05T14:16:05.069Z,32.35
2022-11-05T14:18:44.411Z,30.67
2022-11-05T14:21:27.495Z,31.13
2022-11-05T14:24:00.427Z,32.97
2022-11-05T14:26:30.143Z,30.48
2022-11-05T14:29:03.831Z,30.70
2022-11-05T14:31:54.335Z,31.92
2022-11-05T14:34:44.939Z,31.23
2022-11-05T14:37:24.321Z,28.30
2022-11-05T14:39:56.582Z,32.72
2022-11-05T14:44:59.034Z,26.95
2022-11-05T14:47:29.142Z,30.05
2022-11-05T14:50:18.065Z,28.77
2022-11-05T14:52:57.359Z,31.38
2022-11-05T14:55:31.533Z,32.33
2022-11-05T14:57:59.193Z,35.63
2022-11-05T15:00:29.761Z,37.53
2022-11-05T15:03:00.016Z,40.75
2022-11-05T15:05:50.153Z,33.28
2022-11-05T15:08:24.897Z,31.23
2022-11-05T15:10:53.724Z,29.90
2022-11-05T15:13:30.434Z,28.60
2022-11-05T15:15:59.338Z,29.50
2022-11-05T15:18:37.104Z,28.08
2022-11-05T15:21:08.032Z,30.30
2022-11-05T15:23:42.144Z,28.02
2022-11-05T15:26:21.249Z,32.75
2022-11-05T15:28:55.410Z,31.55
2022-11-05T15:31:43.765Z,31.42
2022-11-05T15:34:39.937Z,28.67
2022-11-05T15:37:11.769Z,29.25
2022-11-05T15:39:44.871Z,24.75
2022-11-05T15:42:18.616Z,26.15
2022-11-05T15:44:53.480Z,22.75
2022-11-05T15:47:31.117Z,22.38
2022-11-05T15:50:07.500Z,22.83
2022-11-05T15:52:42.988Z,24.80
2022-11-05T15:55:13.299Z,22.90
2022-11-05T15:57:50.647Z,24.17
2022-11-05T16:00:29.567Z,24.23
2022-11-05T16:03:04.809Z,22.63
2022-11-05T16:05:36.660Z,22.67
2022-11-05T16:08:05.651Z,22.40
2022-11-05T16:10:35.848Z,22.40
2022-11-05T16:13:28.403Z,20.33
2022-11-05T16:15:57.857Z,21.02
2022-11-05T16:18:30.587Z,21.83
2022-11-05T16:21:17.201Z,21.83
2022-11-05T16:24:01.262Z,19.95
2022-11-05T16:27:02.177Z,18.33
2022-11-05T16:29:27.534Z,19.33
2022-11-05T16:31:56.020Z,16.58
2022-11-05T16:34:31.756Z,16.50
2022-11-05T16:36:59.695Z,18.15
2022-11-05T16:39:28.202Z,15.52
2022-11-05T16:41:56.066Z,16.30
2022-11-05T16:44:24.821Z,15.70
2022-11-05T16:46:52.809Z,15.18
2022-11-05T16:49:20.658Z,15.43
2022-11-05T16:51:48.415Z,15.25
2022-11-05T16:54:17.013Z,17.38
2022-11-05T16:56:47.090Z,15.68
2022-11-05T16:59:15.612Z,14.77
2022-11-05T17:01:44.683Z,14.88
2022-11-05T17:04:14.351Z,14.57
2022-11-05T17:06:45.182Z,14.77
2022-11-05T17:09:13.101Z,14.55
2022-11-05T17:11:41.076Z,15.02
2022-11-05T17:14:11.441Z,15.38
2022-11-05T17:16:40.238Z,13.85
2022-11-05T17:19:10.396Z,15.02
2022-11-05T17:21:40.455Z,13.40
2022-11-05T17:24:09.768Z,13.60
2022-11-05T17:26:38.619Z,14.77
2022-11-05T17:29:07.175Z,12.98
2022-11-05T17:31:35.355Z,13.30
2022-11-05T17:34:03.847Z,13.30
2022-11-05T17:36:34.493Z,13.90
2022-11-05T17:39:04.628Z,13.98
2022-11-05T17:41:33.693Z,13.57
2022-11-05T17:44:01.818Z,13.25
2022-11-05T17:46:29.837Z,13.57
2022-11-05T17:48:57.591Z,14.02
2022-11-05T17:51:25.603Z,14.68
2022-11-05T17:53:53.626Z,13.32
2022-11-05T17:56:33.442Z,13.65
2022-11-05T17:59:02.723Z,13.57
2022-11-05T18:01:33.584Z,15.57
2022-11-05T18:04:08.249Z,16.95
2022-11-05T18:06:38.691Z,20.02
2022-11-05T18:09:07.274Z,20.48
2022-11-05T18:11:36.373Z,17.77
2022-11-05T18:14:04.926Z,17.90
2022-11-05T18:16:33.120Z,17.63
2022-11-05T18:19:01.188Z,16.05
2022-11-05T18:21:30.189Z,17.45
2022-11-05T18:23:58.102Z,18.77
2022-11-05T18:26:25.923Z,18.85
2022-11-05T18:28:53.795Z,18.33
2022-11-05T18:31:21.766Z,19.42
2022-11-05T18:33:49.881Z,19.90
2022-11-05T18:36:28.177Z,22.25
2022-11-05T18:38:57.839Z,18.60
2022-11-05T18:41:25.488Z,20.67
2022-11-05T18:43:53.151Z,20.60
2022-11-05T18:46:51.327Z,20.40
2022-11-05T18:49:10.098Z,23.98
2022-11-05T18:51:37.780Z,23.42
2022-11-05T18:54:05.505Z,20.92
2022-11-05T18:56:33.384Z,23.08
2022-11-05T18:59:30.118Z,21.15
2022-11-05T19:01:50.965Z,21.88
2022-11-05T19:04:19.281Z,22.23
2022-11-05T19:06:48.796Z,22.13
2022-11-05T19:09:17.272Z,23.38
2022-11-05T19:11:45.345Z,22.33
2022-11-05T19:14:13.250Z,23.80
2022-11-05T19:16:41.180Z,23.00
2022-11-05T19:19:10.244Z,24.42
2022-11-05T19:21:39.786Z,24.13
2022-11-05T19:24:08.484Z,22.40
2022-11-05T19:26:36.259Z,24.80
2022-11-05T19:29:04.787Z,21.98
2022-11-05T19:31:34.369Z,23.17
2022-11-05T19:34:03.531Z,23.63
2022-11-05T19:39:04.617Z,22.67
2022-11-05T19:41:33.506Z,22.48
2022-11-05T19:44:02.661Z,22.48
2022-11-05T19:46:31.098Z,23.58
2022-11-05T19:49:00.501Z,20.95
2022-11-05T19:51:29.892Z,23.10
2022-11-05T19:54:00.189Z,22.70
2022-11-05T19:56:29.995Z,21.77
2022-11-05T19:58:57.883Z,21.75
2022-11-05T20:01:26.901Z,21.15
2022-11-05T20:03:55.630Z,22.45
2022-11-05T20:06:34.927Z,20.52
2022-11-05T20:11:56.507Z,21.02
2022-11-05T20:14:25.037Z,21.13
2022-11-05T20:16:52.948Z,20.73
2022-11-05T20:19:21.625Z,22.35
2022-11-05T20:21:50.136Z,22.23
2022-11-05T20:24:24.074Z,20.20
2022-11-05T20:26:54.680Z,21.35
2022-11-05T20:29:22.429Z,19.77
2022-11-05T20:31:50.444Z,20.05
2022-11-05T20:34:17.943Z,19.67
2022-11-05T20:36:45.699Z,17.98
2022-11-05T20:39:13.361Z,18.55
2022-11-05T20:41:40.963Z,20.15
2022-11-05T20:44:08.575Z,18.70
2022-11-05T20:46:36.240Z,19.55
2022-11-05T20:49:03.793Z,18.63
2022-11-05T20:51:31.390Z,19.05
2022-11-05T20:53:59.959Z,18.15
2022-11-05T20:56:29.713Z,18.55
2022-11-05T20:58:58.599Z,17.80
2022-11-05T21:01:31.145Z,18.02
2022-11-05T21:04:00.170Z,19.27
2022-11-05T21:06:28.003Z,18.08
2022-11-05T21:08:55.711Z,19.23
2022-11-05T21:11:50.319Z,18.17
2022-11-05T21:14:18.138Z,18.70
2022-11-05T21:16:45.738Z,17.77
2022-11-05T21:19:15.272Z,19.33
2022-11-05T21:21:42.775Z,16.60
2022-11-05T21:24:10.348Z,16.98
2022-11-05T21:26:37.892Z,18.40
2022-11-05T21:29:05.768Z,16.67
2022-11-05T21:31:38.572Z,18.02
2022-11-05T21:34:06.525Z,18.00
2022-11-05T21:36:34.281Z,19.05
2022-11-05T21:39:02.030Z,18.10
2022-11-05T21:41:31.146Z,18.67
2022-11-05T21:43:58.868Z,17.35
2022-11-05T21:46:26.551Z,19.83
2022-11-05T21:48:54.115Z,19.00
2022-11-05T21:51:40.558Z,17.73
2022-11-05T21:54:28.703Z,18.52
2022-11-05T21:57:15.202Z,17.55
2022-11-05T21:59:49.267Z,16.45
2022-11-05T22:02:20.868Z,17.80
2022-11-05T22:04:53.338Z,17.50
2022-11-05T22:07:23.188Z,19.15
2022-11-05T22:09:50.754Z,18.10
2022-11-05T22:12:20.375Z,16.50
2022-11-05T22:14:48.628Z,17.38
2022-11-05T22:17:16.684Z,17.88
2022-11-05T22:19:45.035Z,17.33
2022-11-05T22:22:12.660Z,18.98
2022-11-05T22:24:40.366Z,17.52
2022-11-05T22:27:12.530Z,17.77
2022-11-05T22:29:40.122Z,17.90
2022-11-05T22:32:07.820Z,19.02
2022-11-05T22:34:35.815Z,18.92
2022-11-05T22:37:03.630Z,18.52
2022-11-05T22:39:31.610Z,18.40
2022-11-05T22:42:02.965Z,17.08
2022-11-05T22:44:33.271Z,17.27
2022-11-05T22:47:00.945Z,18.52
2022-11-05T22:49:28.978Z,15.98
2022-11-05T22:51:56.756Z,15.07
2022-11-05T22:54:24.327Z,16.05
2022-11-05T22:56:53.877Z,16.90
2022-11-05T22:59:21.628Z,15.63
2022-11-05T23:01:49.548Z,15.25
2022-11-05T23:04:17.924Z,14.35
2022-11-05T23:07:04.405Z,14.40
2022-11-05T23:09:51.829Z,15.02
2022-11-05T23:12:21.985Z,15.10
2022-11-05T23:14:49.830Z,12.95
2022-11-05T23:17:36.314Z,15.70
2022-11-05T23:20:29.930Z,13.68
2022-11-05T23:23:16.077Z,14.07
2022-11-05T23:25:43.644Z,14.40
2022-11-05T23:28:11.593Z,13.15
2022-11-05T23:31:01.627Z,13.48
2022-11-05T23:33:29.471Z,14.63
2022-11-05T23:36:15.506Z,12.85
2022-11-05T23:38:43.082Z,12.23
2022-11-05T23:41:29.043Z,13.05
2022-11-05T23:44:15.166Z,11.77
2022-11-05T23:47:01.373Z,12.73
2022-11-05T23:49:29.075Z,12.18
2022-11-05T23:51:56.669Z,11.57
2022-11-05T23:54:25.278Z,12.57
2022-11-05T23:56:53.675Z,11.65
2022-11-05T23:59:21.283Z,10.95
